Time;durP1;ratioP1;P1;durP2;ratioP2;P2;SDS_P1;SDS_P2;PMS_P1;PMS_P2;Temp;Humidity;BMP_temperature;BMP_pressure;BME280_temperature;BME280_humidity;BME280_pressure;Samples;Min_cycle;Max_cycle;Signal;HPM_P1;HPM_P2
2020/12/24 00:02:10;;;;;;;4.88;0.90;;;;;;;7.92;98.43;99609.94;6204116;22;20409;-73
2020/12/24 00:04:35;;;;;;;3.95;1.02;;;;;;;7.93;98.62;99608.81;6254300;22;20007;-73
2020/12/24 00:07:01;;;;;;;5.93;1.30;;;;;;;7.94;98.74;99614.03;6228950;22;20003;-73
2020/12/24 00:09:26;;;;;;;8.50;1.20;;;;;;;7.94;98.82;99622.34;6281613;22;20004;-73
2020/12/24 00:11:52;;;;;;;5.63;1.13;;;;;;;7.95;98.77;99615.69;6279574;22;20003;-73
2020/12/24 00:14:18;;;;;;;6.07;1.45;;;;;;;7.96;98.50;99616.50;6280168;22;20003;-73
2020/12/24 00:16:43;;;;;;;5.32;1.52;;;;;;;7.95;98.61;99623.16;6281175;22;20444;-73
2020/12/24 00:19:09;;;;;;;3.85;0.85;;;;;;;7.99;98.66;99638.84;6254403;22;20007;-73
2020/12/24 00:21:35;;;;;;;3.40;1.25;;;;;;;8.00;98.69;99642.44;6253971;22;20018;-73
2020/12/24 00:24:01;;;;;;;3.03;1.17;;;;;;;8.00;98.66;99646.03;6281185;22;20078;-73
2020/12/24 00:26:27;;;;;;;4.13;1.13;;;;;;;8.01;98.62;99646.84;6254092;22;20012;-72
2020/12/24 00:28:52;;;;;;;3.72;1.25;;;;;;;8.01;98.72;99652.38;6228997;22;20090;-73
2020/12/24 00:31:18;;;;;;;5.28;1.10;;;;;;;8.02;98.70;99648.47;6278396;22;20329;-73
2020/12/24 00:33:44;;;;;;;6.40;1.20;;;;;;;8.03;98.62;99652.91;6203543;22;20628;-73
2020/12/24 00:36:09;;;;;;;4.88;1.20;;;;;;;8.02;98.96;99651.25;6228906;22;20007;-73
2020/12/24 00:38:35;;;;;;;5.45;1.40;;;;;;;8.04;98.77;99654.53;6281137;22;20451;-73
2020/12/24 00:41:00;;;;;;;6.55;1.33;;;;;;;8.04;98.84;99655.34;6280617;22;20008;-73
2020/12/24 00:43:26;;;;;;;6.07;1.67;;;;;;;8.04;98.64;99652.59;6229023;22;19999;-73
2020/12/24 00:45:52;;;;;;;7.70;1.38;;;;;;;8.04;98.74;99669.19;6253496;22;20039;-73
2020/12/24 00:48:17;;;;;;;6.30;1.50;;;;;;;8.06;98.88;99666.13;6253931;22;20012;-73
2020/12/24 00:50:43;;;;;;;4.55;1.35;;;;;;;8.10;98.69;99663.59;6254418;22;20007;-73
2020/12/24 00:53:08;;;;;;;5.55;1.48;;;;;;;8.04;98.91;99663.66;6281194;22;20429;-73
2020/12/24 00:55:34;;;;;;;7.10;1.60;;;;;;;8.04;98.96;99673.91;6253308;22;20306;-73
2020/12/24 00:57:59;;;;;;;7.97;1.60;;;;;;;8.05;98.88;99675.53;6253729;22;20016;-73
2020/12/24 01:00:25;;;;;;;8.13;1.40;;;;;;;8.06;98.65;99679.97;6280954;22;20011;-73
2020/12/24 01:02:50;;;;;;;3.30;1.33;;;;;;;8.04;98.85;99682.19;6253964;22;20481;-73
2020/12/24 01:05:16;;;;;;;5.75;1.50;;;;;;;8.06;98.92;99677.19;6228511;22;20008;-73
2020/12/24 01:07:42;;;;;;;5.07;1.40;;;;;;;8.06;98.69;99682.72;6280720;22;20024;-73
2020/12/24 01:10:07;;;;;;;5.20;1.40;;;;;;;8.03;98.88;99684.16;6253760;22;20042;-73
2020/12/24 01:12:33;;;;;;;9.43;1.50;;;;;;;8.03;98.89;99688.84;6280523;22;20421;-73
2020/12/24 01:14:59;;;;;;;9.30;1.60;;;;;;;8.01;98.97;99685.56;6228291;22;20008;-73
2020/12/24 01:17:25;;;;;;;8.10;2.17;;;;;;;8.00;98.76;99687.50;6279468;22;20003;-73
2020/12/24 01:19:50;;;;;;;6.15;1.50;;;;;;;8.01;98.73;99693.84;6253625;22;20004;-73
2020/12/24 01:22:16;;;;;;;7.40;1.58;;;;;;;8.03;98.80;99694.38;6228407;22;20010;-73
2020/12/24 01:24:42;;;;;;;5.30;1.10;;;;;;;8.02;98.94;99699.09;6227917;22;20012;-73
2020/12/24 01:27:07;;;;;;;8.85;1.42;;;;;;;8.01;98.71;99702.16;6281188;22;20086;-73
2020/12/24 01:29:33;;;;;;;3.00;1.20;;;;;;;8.03;98.91;99716.50;6280396;22;20424;-73
2020/12/24 01:31:59;;;;;;;5.95;1.25;;;;;;;8.02;98.79;99718.47;6226886;22;20014;-73
2020/12/24 01:34:24;;;;;;;7.30;1.30;;;;;;;8.00;99.06;99728.16;6253735;22;20034;-73
2020/12/24 01:36:50;;;;;;;5.25;1.20;;;;;;;8.01;99.05;99724.28;6228609;22;19999;-73
2020/12/24 01:39:15;;;;;;;4.88;1.33;;;;;;;7.98;99.08;99736.75;6280011;22;20011;-73
2020/12/24 01:41:41;;;;;;;4.78;1.33;;;;;;;8.00;98.98;99737.28;6253329;22;20008;-73
2020/12/24 01:44:07;;;;;;;7.63;1.40;;;;;;;7.97;99.06;99750.88;6228435;22;20006;-73
2020/12/24 01:46:32;;;;;;;3.42;1.25;;;;;;;7.98;99.09;99749.75;6252963;22;20034;-73
2020/12/24 01:48:58;;;;;;;4.53;1.02;;;;;;;7.96;99.18;99755.56;6280051;22;20015;-73
2020/12/24 01:51:28;;;;;;;6.10;1.55;;;;;;;7.98;99.01;99752.50;6228171;22;20003;-73
2020/12/24 01:53:55;;;;;;;4.82;1.25;;;;;;;7.95;99.16;99759.47;6279406;22;20003;-73
2020/12/24 01:56:21;;;;;;;4.43;1.20;;;;;;;7.96;99.07;99765.81;6228176;22;20008;-73
2020/12/24 01:58:47;;;;;;;5.25;1.25;;;;;;;7.94;99.32;99773.56;6202702;22;20007;-73
2020/12/24 02:01:12;;;;;;;3.47;1.08;;;;;;;7.95;99.45;99797.34;6253305;22;20008;-73
2020/12/24 02:03:38;;;;;;;3.35;1.55;;;;;;;7.96;99.26;99797.03;6253832;22;20000;-73
2020/12/24 02:06:04;;;;;;;7.45;1.38;;;;;;;7.99;99.07;99806.69;6280227;22;20012;-73
2020/12/24 02:08:29;;;;;;;6.20;1.38;;;;;;;8.00;99.23;99811.13;6253129;22;20141;-73
2020/12/24 02:10:55;;;;;;;4.95;1.05;;;;;;;8.00;99.27;99827.72;6280218;22;20324;-73
2020/12/24 02:13:20;;;;;;;5.30;1.00;;;;;;;7.99;99.02;99837.91;6280207;22;20008;-73
2020/12/24 02:15:46;;;;;;;3.75;1.15;;;;;;;7.99;99.29;99853.69;6227145;22;20376;-73
2020/12/24 02:18:11;;;;;;;5.75;1.20;;;;;;;7.98;99.33;99855.66;6253766;22;20008;-73
2020/12/24 02:20:43;;;;;;;3.97;1.10;;;;;;;7.96;99.68;99871.69;6253280;22;20008;-72
2020/12/24 02:23:09;;;;;;;3.53;0.63;;;;;;;7.96;99.77;99884.69;6280137;22;20000;-73
2020/12/24 02:25:36;;;;;;;5.15;1.23;;;;;;;7.95;99.84;99886.66;6177847;22;20022;-73
2020/12/24 02:28:01;;;;;;;3.05;0.77;;;;;;;7.94;99.95;99892.44;6228207;22;20007;-73
2020/12/24 02:30:27;;;;;;;3.55;1.02;;;;;;;7.94;99.77;99901.59;6252553;22;20023;-73
2020/12/24 02:32:52;;;;;;;3.88;1.00;;;;;;;7.92;99.94;99917.66;6252913;22;20004;-73
2020/12/24 02:35:18;;;;;;;8.55;1.25;;;;;;;7.92;100.00;99925.13;6253119;22;20022;-73
2020/12/24 02:37:43;;;;;;;3.30;1.00;;;;;;;7.90;100.00;99930.13;6203247;22;20086;-73
2020/12/24 02:40:09;;;;;;;7.40;1.02;;;;;;;7.88;100.00;99940.63;6279576;22;20433;-73
2020/12/24 02:42:34;;;;;;;5.93;1.08;;;;;;;7.88;100.00;99943.38;6253103;22;20417;-73
2020/12/24 02:45:00;;;;;;;7.93;1.30;;;;;;;7.86;100.00;99951.16;6253252;22;20012;-73
2020/12/24 02:47:26;;;;;;;3.33;0.95;;;;;;;7.84;99.75;99959.75;6252674;22;20007;-72
2020/12/24 02:49:51;;;;;;;3.72;0.90;;;;;;;7.80;99.88;99953.13;6252686;22;20030;-73
2020/12/24 02:52:17;;;;;;;7.00;1.05;;;;;;;7.81;99.70;99968.63;6280079;22;20016;-73
2020/12/24 02:54:42;;;;;;;7.78;1.00;;;;;;;7.80;99.67;99975.25;6253095;22;20015;-73
2020/12/24 02:57:08;;;;;;;9.60;1.50;;;;;;;7.75;99.55;99981.66;6280631;22;20073;-73
2020/12/24 02:59:33;;;;;;;4.10;0.93;;;;;;;7.75;99.48;99989.13;6280215;22;20011;-73
2020/12/24 03:01:59;;;;;;;4.10;0.70;;;;;;;7.73;99.54;99994.13;6281896;22;20019;-73
2020/12/24 03:04:24;;;;;;;5.07;0.90;;;;;;;7.67;99.43;100007.16;6230137;22;20004;-73
2020/12/24 03:06:50;;;;;;;9.10;1.08;;;;;;;7.67;99.45;100012.66;6228949;22;20333;-73
2020/12/24 03:09:15;;;;;;;6.90;0.90;;;;;;;7.60;99.36;100018.53;6254641;22;20015;-73
2020/12/24 03:11:48;;;;;;;6.13;0.80;;;;;;;7.60;99.50;100028.72;6255177;22;20018;-73
2020/12/24 03:14:13;;;;;;;6.70;0.80;;;;;;;7.57;99.41;100032.06;6230309;22;20068;-73
2020/12/24 03:16:39;;;;;;;6.20;0.85;;;;;;;7.57;99.55;100029.31;6281539;22;20447;-73
2020/12/24 03:19:04;;;;;;;5.15;1.00;;;;;;;7.55;99.31;100037.91;6281886;22;20359;-73
2020/12/24 03:21:30;;;;;;;5.07;1.13;;;;;;;7.50;99.27;100039.88;6282193;22;20008;-73
2020/12/24 03:23:55;;;;;;;7.80;0.82;;;;;;;7.49;99.46;100050.06;6254582;22;20010;-73
2020/12/24 03:26:21;;;;;;;7.20;1.25;;;;;;;7.43;99.37;100050.41;6254268;22;20011;-73
2020/12/24 03:28:46;;;;;;;4.05;1.10;;;;;;;7.44;99.44;100058.41;6281949;22;20007;-73
2020/12/24 03:31:12;;;;;;;7.00;1.10;;;;;;;7.41;99.18;100058.13;6228390;22;20317;-73
2020/12/24 03:33:37;;;;;;;7.75;1.33;;;;;;;7.34;99.13;100059.28;6254756;22;20030;-73
2020/12/24 03:36:03;;;;;;;7.85;1.30;;;;;;;7.32;99.16;100061.47;6281580;22;20004;-73
2020/12/24 03:38:28;;;;;;;9.27;1.10;;;;;;;7.29;98.99;100062.06;6282231;22;20007;-73
2020/12/24 03:40:54;;;;;;;7.03;1.10;;;;;;;7.28;99.29;100074.22;6281074;22;20011;-73
2020/12/24 03:43:20;;;;;;;5.72;1.20;;;;;;;7.23;99.12;100079.75;6229030;22;20011;-73
2020/12/24 03:45:45;;;;;;;9.77;1.27;;;;;;;7.19;99.01;100080.59;6254474;22;20019;-73
2020/12/24 03:48:11;;;;;;;6.30;0.90;;;;;;;7.14;99.03;100089.75;6254898;22;20010;-73
2020/12/24 03:50:37;;;;;;;5.88;1.10;;;;;;;7.14;99.22;100098.84;6254406;22;20007;-73
2020/12/24 03:53:02;;;;;;;5.30;0.73;;;;;;;7.12;99.08;100101.06;6254230;22;20012;-73
2020/12/24 03:55:28;;;;;;;7.03;0.80;;;;;;;7.11;99.20;100106.88;6281497;22;20155;-73
2020/12/24 03:57:53;;;;;;;8.02;1.10;;;;;;;7.09;99.04;100111.84;6254328;22;20425;-73
2020/12/24 04:00:19;;;;;;;10.20;1.05;;;;;;;7.07;99.53;100114.06;6253831;22;20374;-73
2020/12/24 04:02:45;;;;;;;4.55;0.70;;;;;;;7.09;99.22;100120.13;6281751;22;20486;-73
2020/12/24 04:05:10;;;;;;;6.95;1.40;;;;;;;7.06;99.71;100124.28;6281574;22;20345;-72
2020/12/24 04:07:36;;;;;;;5.88;0.85;;;;;;;7.03;99.62;100129.56;6254009;22;20020;-73
2020/12/24 04:10:01;;;;;;;8.18;1.13;;;;;;;7.02;99.71;100139.78;6280104;22;20015;-73
2020/12/24 04:12:27;;;;;;;12.20;1.52;;;;;;;7.05;99.93;100147.50;6229304;22;20113;-73
2020/12/24 04:14:52;;;;;;;7.03;1.23;;;;;;;7.06;100.00;100156.59;6281454;22;20057;-73
2020/12/24 04:17:18;;;;;;;10.20;1.13;;;;;;;7.09;100.00;100161.56;6253939;22;20015;-73
2020/12/24 04:19:43;;;;;;;7.00;1.48;;;;;;;7.12;100.00;100172.03;6254353;22;20008;-73
2020/12/24 04:22:09;;;;;;;6.93;1.05;;;;;;;7.15;100.00;100177.81;6254587;22;20004;-72
2020/12/24 04:24:34;;;;;;;10.02;1.45;;;;;;;7.16;100.00;100189.72;6253647;22;20007;-72
2020/12/24 04:27:00;;;;;;;7.97;1.33;;;;;;;7.18;100.00;100198.53;6228573;22;20010;-73
2020/12/24 04:29:25;;;;;;;11.38;1.65;;;;;;;7.20;100.00;100201.84;6254827;22;20008;-73
2020/12/24 04:31:51;;;;;;;14.10;1.90;;;;;;;7.21;100.00;100197.97;6253298;22;20000;-73
2020/12/24 04:34:16;;;;;;;9.48;1.40;;;;;;;7.24;100.00;100208.47;6228588;22;20368;-72
2020/12/24 04:36:42;;;;;;;13.23;1.48;;;;;;;7.24;100.00;100210.41;6254208;22;20045;-73
2020/12/24 04:39:08;;;;;;;14.38;2.00;;;;;;;7.21;100.00;100209.03;6281441;22;20015;-73
2020/12/24 04:41:34;;;;;;;13.00;2.03;;;;;;;7.23;100.00;100228.09;6253635;22;20000;-72
2020/12/24 04:43:59;;;;;;;13.07;1.92;;;;;;;7.25;100.00;100223.13;6253756;22;19999;-73
2020/12/24 04:46:27;;;;;;;11.95;1.90;;;;;;;7.25;100.00;100232.25;6254208;22;20015;-73
2020/12/24 04:48:52;;;;;;;14.20;1.98;;;;;;;7.22;100.00;100238.31;6281242;22;20007;-72
2020/12/24 04:51:20;;;;;;;17.55;2.60;;;;;;;7.19;100.00;100232.50;6253899;22;20068;-73
2020/12/24 04:53:45;;;;;;;10.52;1.60;;;;;;;7.21;100.00;100242.16;6254135;22;20344;-73
2020/12/24 04:56:11;;;;;;;15.02;2.00;;;;;;;7.15;100.00;100251.56;6280944;22;20057;-73
2020/12/24 04:58:37;;;;;;;11.63;1.85;;;;;;;7.20;100.00;100250.75;6280961;22;20085;-72
2020/12/24 05:01:02;;;;;;;14.68;2.15;;;;;;;7.18;100.00;100255.72;6253250;22;20016;-72
2020/12/24 05:03:28;;;;;;;14.85;2.10;;;;;;;7.17;100.00;100260.41;6228471;22;20004;-73
2020/12/24 05:05:54;;;;;;;18.25;2.00;;;;;;;7.18;100.00;100270.34;6254693;22;20007;-73
2020/12/24 05:08:19;;;;;;;15.52;2.08;;;;;;;7.17;100.00;100279.75;6228640;22;20432;-73
2020/12/24 05:11:01;;;;;;;16.17;2.40;;;;;;;7.16;100.00;100284.44;6280219;22;20008;-73
2020/12/24 05:13:27;;;;;;;20.10;2.15;;;;;;;7.15;100.00;100293.00;6231864;22;20436;-72
2020/12/24 05:15:52;;;;;;;12.68;2.63;;;;;;;7.15;100.00;100293.81;6253772;22;20042;-72
2020/12/24 05:18:20;;;;;;;15.68;2.55;;;;;;;7.13;100.00;100303.50;6228390;22;20485;-73
2020/12/24 05:20:46;;;;;;;14.40;2.70;;;;;;;7.10;100.00;100313.19;6280374;22;20000;-73
2020/12/24 05:23:16;;;;;;;17.30;2.20;;;;;;;7.12;100.00;100315.66;6253876;22;20010;-73
2020/12/24 05:25:42;;;;;;;20.70;2.90;;;;;;;7.12;100.00;100316.47;6253630;22;20306;-73
2020/12/24 05:28:08;;;;;;;16.75;3.17;;;;;;;7.11;100.00;100325.06;6253592;22;20011;-73
2020/12/24 05:30:34;;;;;;;14.02;2.70;;;;;;;7.11;100.00;100330.56;6252721;22;20448;-73
2020/12/24 05:33:00;;;;;;;11.38;2.53;;;;;;;7.08;100.00;100339.41;6253830;22;20008;-73
2020/12/24 05:35:26;;;;;;;15.55;2.92;;;;;;;7.07;100.00;100341.31;6253751;22;20033;-73
2020/12/24 05:37:52;;;;;;;11.27;2.35;;;;;;;7.07;100.00;100357.06;6253367;22;20014;-73
2020/12/24 05:40:20;;;;;;;15.63;2.10;;;;;;;7.09;100.00;100361.22;6228305;22;20039;-73
2020/12/24 05:42:54;;;;;;;11.73;2.00;;;;;;;7.08;100.00;100361.50;6280856;22;20003;-73
2020/12/24 05:45:21;;;;;;;11.00;1.80;;;;;;;7.06;100.00;100364.53;6253312;22;20086;-73
2020/12/24 05:47:47;;;;;;;9.43;1.30;;;;;;;7.01;100.00;100381.09;6253347;22;20034;-73
2020/12/24 05:50:24;;;;;;;9.02;1.33;;;;;;;7.03;100.00;100378.88;6280646;22;20016;-73
2020/12/24 05:53:12;;;;;;;7.60;1.40;;;;;;;7.03;100.00;100384.41;6253886;22;20003;-73
2020/12/24 05:55:39;;;;;;;7.38;1.42;;;;;;;7.02;100.00;100393.81;6254529;22;20010;-73
2020/12/24 05:58:07;;;;;;;8.30;1.40;;;;;;;7.01;100.00;100403.16;6278816;22;20003;-73
2020/12/24 06:00:42;;;;;;;6.97;1.42;;;;;;;6.98;100.00;100416.69;6280219;22;20061;-73
2020/12/24 06:03:18;;;;;;;9.07;1.52;;;;;;;6.98;100.00;100420.28;6253781;22;20320;-72
2020/12/24 06:05:54;;;;;;;8.65;1.13;;;;;;;6.99;100.00;100423.88;6280417;22;20007;-73
2020/12/24 06:08:22;;;;;;;9.05;1.65;;;;;;;6.97;100.00;100428.84;6227832;22;20016;-72
2020/12/24 06:10:48;;;;;;;8.82;1.50;;;;;;;6.96;100.00;100440.97;6228031;22;20016;-73
2020/12/24 06:13:16;;;;;;;5.03;1.40;;;;;;;6.94;100.00;100435.75;6228159;22;20003;-73
2020/12/24 06:15:44;;;;;;;10.00;1.73;;;;;;;6.93;100.00;100445.13;6279761;22;20004;-72
2020/12/24 06:18:11;;;;;;;7.30;1.65;;;;;;;6.92;100.00;100449.81;6202748;22;20329;-73
2020/12/24 06:20:37;;;;;;;6.25;1.52;;;;;;;6.89;100.00;100452.28;6253550;22;20083;-73
2020/12/24 06:23:02;;;;;;;8.52;1.65;;;;;;;6.87;100.00;100460.84;6203057;22;20015;-72
2020/12/24 06:25:28;;;;;;;6.68;1.80;;;;;;;6.84;99.93;100469.66;6227546;22;20003;-73
2020/12/24 06:27:53;;;;;;;7.63;1.80;;;;;;;6.84;100.00;100480.69;6202850;22;20003;-73
2020/12/24 06:30:29;;;;;;;8.65;2.20;;;;;;;6.83;100.00;100481.81;6202255;22;20007;-72
2020/12/24 06:32:54;;;;;;;5.60;1.40;;;;;;;6.80;100.00;100487.88;6229815;22;20004;-73
2020/12/24 06:35:38;;;;;;;7.00;1.60;;;;;;;6.78;100.00;100492.84;6255137;22;20367;-73
2020/12/24 06:38:05;;;;;;;8.73;1.63;;;;;;;6.79;100.00;100494.47;6282192;22;20008;-73
2020/12/24 06:40:32;;;;;;;5.10;1.67;;;;;;;6.75;99.83;100509.09;6255153;22;20035;-73
2020/12/24 06:42:58;;;;;;;5.13;1.77;;;;;;;6.79;99.88;100516.56;6229725;22;20057;-73
2020/12/24 06:45:30;;;;;;;6.75;2.10;;;;;;;6.74;99.71;100521.22;6254661;22;20016;-73
2020/12/24 06:48:37;;;;;;;4.82;1.55;;;;;;;6.72;99.86;100527.84;6254917;22;20409;-73
2020/12/24 06:51:03;;;;;;;8.57;2.20;;;;;;;6.67;99.98;100529.75;6262276;22;20030;-73
2020/12/24 06:53:30;;;;;;;4.82;1.60;;;;;;;6.67;99.68;100551.84;6230505;22;20004;-73
2020/12/24 06:56:14;;;;;;;6.40;1.52;;;;;;;6.66;99.92;100551.00;6254692;22;20007;-73
2020/12/24 06:58:40;;;;;;;7.80;2.50;;;;;;;6.64;99.97;100561.47;6282041;22;20004;-73
2020/12/24 07:01:06;;;;;;;3.50;1.95;;;;;;;6.63;100.00;100564.50;6254991;22;20074;-73
2020/12/24 07:03:35;;;;;;;5.90;2.03;;;;;;;6.63;100.00;100575.53;6255233;22;20004;-74
2020/12/24 07:06:01;;;;;;;5.78;1.85;;;;;;;6.64;100.00;100574.44;6255061;22;20435;-73
2020/12/24 07:08:32;;;;;;;4.40;2.03;;;;;;;6.62;100.00;100596.78;6229498;22;20023;-74
2020/12/24 07:10:59;;;;;;;7.35;1.17;;;;;;;6.57;99.81;100590.41;6281573;22;20008;-73
2020/12/24 07:13:38;;;;;;;5.07;1.95;;;;;;;6.57;99.97;100596.75;6282225;22;20014;-73
2020/12/24 07:16:06;;;;;;;8.10;1.70;;;;;;;6.48;100.00;100607.44;6281470;22;20008;-73
2020/12/24 07:18:34;;;;;;;7.03;2.28;;;;;;;6.49;99.88;100617.41;6255566;22;20038;-73
2020/12/24 07:21:04;;;;;;;8.40;1.80;;;;;;;6.49;100.00;100627.59;6230136;22;20008;-74
2020/12/24 07:23:31;;;;;;;3.50;1.27;;;;;;;6.45;99.95;100638.31;6255111;22;20023;-73
2020/12/24 07:26:07;;;;;;;5.88;1.52;;;;;;;6.45;99.99;100631.97;6254400;22;20011;-73
2020/12/24 07:28:34;;;;;;;8.27;1.60;;;;;;;6.45;99.99;100638.31;6255073;22;20007;-73
2020/12/24 07:31:05;;;;;;;4.32;1.30;;;;;;;6.44;99.90;100649.63;6228968;22;20008;-73
2020/12/24 07:33:31;;;;;;;6.60;1.48;;;;;;;6.43;99.78;100662.56;6255859;22;20028;-73
2020/12/24 07:35:56;;;;;;;5.30;1.52;;;;;;;6.39;99.88;100660.63;6229213;22;20484;-73
2020/12/24 07:38:28;;;;;;;6.93;1.73;;;;;;;6.42;99.71;100657.34;6229675;22;20019;-73
2020/12/24 07:40:54;;;;;;;5.93;1.40;;;;;;;6.39;99.88;100666.16;6254896;22;20015;-73
2020/12/24 07:43:20;;;;;;;10.13;1.67;;;;;;;6.37;99.82;100677.44;6281393;22;20225;-73
2020/12/24 07:45:46;;;;;;;9.15;1.73;;;;;;;6.37;99.56;100695.91;6254355;22;20057;-73
2020/12/24 07:48:11;;;;;;;9.90;1.75;;;;;;;6.37;99.62;100699.50;6281663;22;20014;-73
2020/12/24 07:50:37;;;;;;;10.13;1.98;;;;;;;6.35;99.90;100700.84;6281903;22;20003;-73
2020/12/24 07:53:02;;;;;;;9.90;1.88;;;;;;;6.34;100.00;100711.06;6281250;22;20008;-73
2020/12/24 07:55:28;;;;;;;11.13;1.90;;;;;;;6.33;99.98;100722.38;6281187;22;20008;-73
2020/12/24 07:58:10;;;;;;;8.52;1.70;;;;;;;6.30;99.88;100729.25;6255218;22;20004;-73
2020/12/24 08:00:40;;;;;;;11.73;1.50;;;;;;;6.30;99.56;100737.50;6281440;22;20012;-73
2020/12/24 08:03:06;;;;;;;14.65;2.22;;;;;;;6.32;99.68;100740.81;6254394;22;20417;-73
2020/12/24 08:05:32;;;;;;;10.52;1.77;;;;;;;6.30;99.66;100740.28;6254353;22;20003;-73
2020/12/24 08:07:58;;;;;;;6.70;1.23;;;;;;;6.29;99.95;100755.13;6254759;22;20429;-74
2020/12/24 08:10:23;;;;;;;11.07;1.70;;;;;;;6.30;99.77;100764.28;6280924;22;20003;-73
2020/12/24 08:12:49;;;;;;;8.50;1.63;;;;;;;6.29;99.68;100777.19;6281348;22;20011;-73
2020/12/24 08:15:17;;;;;;;13.43;1.58;;;;;;;6.30;99.55;100778.88;6281129;22;20007;-74
2020/12/24 08:17:57;;;;;;;12.77;2.47;;;;;;;6.23;99.19;100787.34;6229650;22;20011;-73
2020/12/24 08:20:22;;;;;;;11.68;2.30;;;;;;;6.23;99.35;100797.56;6230913;22;20019;-73
2020/12/24 08:22:56;;;;;;;10.25;1.55;;;;;;;6.23;99.44;100808.59;6281154;22;20008;-73
2020/12/24 08:25:22;;;;;;;8.55;2.17;;;;;;;6.20;99.56;100804.41;6253884;22;20039;-73
2020/12/24 08:27:48;;;;;;;10.07;2.25;;;;;;;6.24;99.80;100816.63;6281667;22;20030;-73
2020/12/24 08:30:14;;;;;;;9.30;1.90;;;;;;;6.22;99.16;100815.19;6279933;22;20453;-73
2020/12/24 08:32:40;;;;;;;10.30;2.20;;;;;;;6.21;98.82;100825.41;6229246;22;20035;-73
2020/12/24 08:35:12;;;;;;;8.63;1.63;;;;;;;6.18;98.95;100816.78;6281348;22;20007;-73
2020/12/24 08:37:38;;;;;;;10.18;2.30;;;;;;;6.11;99.32;100825.28;6281397;22;20031;-73
2020/12/24 08:40:20;;;;;;;10.18;2.20;;;;;;;6.14;99.02;100840.47;6253735;22;20333;-74
2020/12/24 08:42:46;;;;;;;9.80;1.60;;;;;;;6.14;98.43;100855.09;6203438;22;20049;-73
2020/12/24 08:45:12;;;;;;;5.57;1.80;;;;;;;6.12;98.82;100859.19;6228913;22;20004;-73
2020/12/24 08:47:38;;;;;;;8.95;1.40;;;;;;;6.12;98.81;100859.19;6281124;22;20335;-73
2020/12/24 08:50:04;;;;;;;7.75;1.52;;;;;;;6.12;99.19;100865.53;6280852;22;20008;-73
2020/12/24 08:52:34;;;;;;;7.20;1.50;;;;;;;6.13;99.67;100880.16;6280934;22;20014;-73
2020/12/24 08:55:01;;;;;;;7.60;2.28;;;;;;;6.12;99.31;100876.56;6253767;22;20004;-74
2020/12/24 08:57:27;;;;;;;10.15;2.50;;;;;;;6.15;99.55;100880.75;6203806;22;20012;-73
2020/12/24 08:59:56;;;;;;;15.43;3.25;;;;;;;6.17;99.40;100895.13;6228203;22;20069;-73
2020/12/24 09:02:31;;;;;;;8.75;2.15;;;;;;;6.20;99.38;100905.63;6253916;22;20479;-73
2020/12/24 09:04:58;;;;;;;10.25;2.90;;;;;;;6.21;99.45;100901.78;6254325;22;20004;-73
2020/12/24 09:07:29;;;;;;;6.93;2.67;;;;;;;6.19;99.45;100906.72;6280573;22;20313;-73
2020/12/24 09:10:08;;;;;;;7.22;2.72;;;;;;;6.21;99.25;100907.28;6280394;22;20004;-73
2020/12/24 09:12:34;;;;;;;16.50;3.40;;;;;;;6.20;99.47;100925.78;6281129;22;20016;-74
2020/12/24 09:15:00;;;;;;;9.93;3.05;;;;;;;6.23;99.79;100929.94;6280982;22;20321;-73
2020/12/24 09:17:26;;;;;;;11.23;3.88;;;;;;;6.27;99.34;100939.38;6228516;22;20031;-74
2020/12/24 09:20:13;;;;;;;12.20;3.28;;;;;;;6.30;99.72;100944.41;6280663;22;20325;-73
2020/12/24 09:22:48;;;;;;;12.10;3.70;;;;;;;6.34;99.01;100948.28;6229776;22;20417;-73
2020/12/24 09:25:29;;;;;;;12.55;3.45;;;;;;;6.32;99.29;100950.47;6203104;22;20052;-73
2020/12/24 09:27:54;;;;;;;14.65;4.15;;;;;;;6.37;99.38;100953.31;6280885;22;20011;-73
2020/12/24 09:30:20;;;;;;;21.10;5.80;;;;;;;6.40;99.49;100955.53;6227132;22;20388;-73
2020/12/24 09:33:01;;;;;;;12.98;4.88;;;;;;;6.41;99.54;100965.50;6253906;22;20007;-73
2020/12/24 09:35:27;;;;;;;14.90;4.03;;;;;;;6.45;99.59;100968.59;6253960;22;20359;-73
2020/12/24 09:37:53;;;;;;;9.13;2.97;;;;;;;6.49;99.07;100967.84;6253591;22;20007;-73
2020/12/24 09:40:19;;;;;;;6.05;1.98;;;;;;;6.53;98.74;100970.06;6280356;22;20010;-73
2020/12/24 09:42:45;;;;;;;9.00;2.58;;;;;;;6.55;98.72;100985.28;6253514;22;20424;-73
2020/12/24 09:45:10;;;;;;;7.43;1.80;;;;;;;6.60;98.05;100987.25;6253831;22;20077;-73
2020/12/24 09:47:36;;;;;;;10.38;2.15;;;;;;;6.55;98.47;100992.75;6254045;22;20080;-73
2020/12/24 09:50:03;;;;;;;4.60;1.60;;;;;;;6.61;97.24;101000.00;6203781;22;20007;-73
2020/12/24 09:52:28;;;;;;;7.85;1.58;;;;;;;6.55;98.01;100998.25;6254236;22;20023;-73
2020/12/24 09:54:54;;;;;;;5.20;1.65;;;;;;;6.54;97.13;101002.09;6279104;22;20012;-73
2020/12/24 09:57:20;;;;;;;6.35;2.03;;;;;;;6.52;97.29;101007.03;6280726;22;20003;-73
2020/12/24 09:59:45;;;;;;;3.30;1.45;;;;;;;6.50;96.93;101007.28;6280579;22;20014;-73
2020/12/24 10:02:11;;;;;;;10.45;3.17;;;;;;;6.48;97.27;101018.56;6228340;22;20007;-73
2020/12/24 10:04:36;;;;;;;10.25;2.30;;;;;;;6.51;97.08;101028.25;6253294;22;20329;-73
2020/12/24 10:07:02;;;;;;;7.25;2.10;;;;;;;6.43;97.25;101021.25;6279611;22;20012;-73
2020/12/24 10:09:27;;;;;;;7.90;2.45;;;;;;;6.48;97.39;101026.03;6227780;22;20105;-73
2020/12/24 10:11:53;;;;;;;6.20;2.03;;;;;;;6.47;97.01;101021.59;6280647;22;20428;-73
2020/12/24 10:14:20;;;;;;;9.32;2.22;;;;;;;6.46;96.56;101037.31;6280087;22;20417;-73
2020/12/24 10:16:45;;;;;;;4.90;1.85;;;;;;;6.41;97.49;101048.28;6280003;22;20010;-73
2020/12/24 10:19:11;;;;;;;5.82;1.83;;;;;;;6.44;97.56;101058.81;6253481;22;20087;-73
2020/12/24 10:21:39;;;;;;;5.28;1.65;;;;;;;6.43;98.16;101057.13;6279863;22;20011;-73
2020/12/24 10:24:05;;;;;;;6.95;1.80;;;;;;;6.43;96.66;101068.16;6280707;22;19999;-73
2020/12/24 10:26:30;;;;;;;7.63;1.63;;;;;;;6.43;96.79;101076.44;6228213;22;20008;-73
2020/12/24 10:28:56;;;;;;;8.25;1.83;;;;;;;6.40;97.07;101079.69;6281124;22;20008;-73
2020/12/24 10:31:21;;;;;;;8.93;2.05;;;;;;;6.42;96.69;101088.56;6279307;22;20371;-73
2020/12/24 10:33:47;;;;;;;6.85;2.10;;;;;;;6.41;96.87;101097.13;6228242;22;20018;-73
2020/12/24 10:36:20;;;;;;;8.20;2.55;;;;;;;6.40;96.70;101112.81;6254071;22;20010;-73
2020/12/24 10:38:45;;;;;;;10.18;2.45;;;;;;;6.37;95.44;101127.13;6253901;22;20007;-74
2020/12/24 10:41:12;;;;;;;7.05;1.85;;;;;;;6.35;96.27;101120.16;6279942;22;20007;-73
2020/12/24 10:43:37;;;;;;;12.52;1.92;;;;;;;6.34;96.06;101124.84;6252993;22;20329;-73
2020/12/24 10:46:03;;;;;;;10.75;2.10;;;;;;;6.33;95.58;101120.44;6227894;22;20011;-73
2020/12/24 10:48:28;;;;;;;10.68;1.70;;;;;;;6.32;95.08;101126.19;6252611;22;20409;-73
2020/12/24 10:50:55;;;;;;;11.35;1.83;;;;;;;6.30;94.71;101131.16;6252974;22;20012;-73
2020/12/24 10:53:21;;;;;;;7.82;1.73;;;;;;;6.28;94.44;101128.63;6253409;22;20086;-73
2020/12/24 10:55:47;;;;;;;10.70;2.42;;;;;;;6.26;95.47;101128.03;6279753;22;20008;-73
2020/12/24 10:58:12;;;;;;;13.43;2.55;;;;;;;6.31;94.72;101125.38;6252501;22;20153;-73
2020/12/24 11:00:38;;;;;;;9.63;2.05;;;;;;;6.33;94.50;101131.47;6252405;22;20008;-73
2020/12/24 11:03:03;;;;;;;11.13;2.80;;;;;;;6.29;95.12;101141.31;6228704;22;20425;-73
2020/12/24 11:05:29;;;;;;;5.80;2.25;;;;;;;6.30;95.09;101137.50;6253282;22;20008;-73
2020/12/24 11:07:54;;;;;;;11.45;2.47;;;;;;;6.32;94.64;101132.53;6227908;22;20015;-73
2020/12/24 11:10:20;;;;;;;13.27;3.15;;;;;;;6.34;94.43;101135.06;6253273;22;20034;-73
2020/12/24 11:12:45;;;;;;;7.28;2.35;;;;;;;6.36;94.12;101141.19;6280720;22;20015;-73
2020/12/24 11:15:11;;;;;;;12.35;2.55;;;;;;;6.34;94.61;101138.66;6253160;22;20450;-73
2020/12/24 11:17:36;;;;;;;9.43;2.10;;;;;;;6.43;93.67;101142.66;6280175;22;20030;-73
2020/12/24 11:20:02;;;;;;;6.35;2.00;;;;;;;6.42;93.60;101123.63;6256034;22;20185;-73
2020/12/24 11:22:28;;;;;;;13.23;2.42;;;;;;;6.44;93.31;101129.72;6254955;22;20152;-73
2020/12/24 11:24:53;;;;;;;13.35;2.78;;;;;;;6.47;93.18;101134.72;6281335;22;20057;-73
2020/12/24 11:27:19;;;;;;;9.15;2.38;;;;;;;6.41;93.34;101133.81;6255009;22;20011;-73
2020/12/24 11:29:44;;;;;;;9.48;2.33;;;;;;;6.45;92.29;101134.97;6281800;22;20007;-73
2020/12/24 11:32:10;;;;;;;10.43;2.90;;;;;;;6.47;92.96;101143.00;6280971;22;20008;-73